createdAt,value
2022-09-10T00:01:21.589Z,16.73
2022-09-10T00:03:51.425Z,16.73
2022-09-10T00:06:19.195Z,16.75
2022-09-10T00:08:47.067Z,16.75
2022-09-10T00:11:14.910Z,16.72
2022-09-10T00:13:42.085Z,16.69
2022-09-10T00:16:11.904Z,16.71
2022-09-10T00:18:39.563Z,16.69
2022-09-10T00:21:10.277Z,16.71
2022-09-10T00:23:36.847Z,16.68
2022-09-10T00:26:23.452Z,16.66
2022-09-10T00:28:51.543Z,16.66
2022-09-10T00:31:19.700Z,16.69
2022-09-10T00:33:46.302Z,16.69
2022-09-10T00:36:33.121Z,16.70
2022-09-10T00:39:03.526Z,16.67
2022-09-10T00:41:30.419Z,16.69
2022-09-10T00:44:02.780Z,16.69
2022-09-10T00:46:32.788Z,16.69
2022-09-10T00:49:02.474Z,16.69
2022-09-10T00:51:32.917Z,16.69
2022-09-10T00:54:01.162Z,16.68
2022-09-10T00:56:28.918Z,16.69
2022-09-10T00:58:55.992Z,16.69
2022-09-10T01:01:23.101Z,16.67
2022-09-10T01:03:50.527Z,16.67
2022-09-10T01:06:18.096Z,16.68
2022-09-10T01:08:44.490Z,16.70
2022-09-10T01:11:29.253Z,16.71
2022-09-10T01:13:58.362Z,16.72
2022-09-10T01:16:34.119Z,16.72
2022-09-10T01:19:19.315Z,16.70
2022-09-10T01:22:02.775Z,16.70
2022-09-10T01:24:48.448Z,16.71
2022-09-10T01:27:37.473Z,16.67
2022-09-10T01:30:09.081Z,16.64
2022-09-10T01:32:55.347Z,16.60
2022-09-10T01:35:37.400Z,16.60
2022-09-10T01:38:10.816Z,16.60
2022-09-10T01:40:38.278Z,16.60
2022-09-10T01:43:10.937Z,16.60
2022-09-10T01:45:51.031Z,16.60
2022-09-10T01:48:53.982Z,16.55
2022-09-10T01:51:38.424Z,16.55
2022-09-10T01:54:11.296Z,16.54
2022-09-10T01:56:43.771Z,16.54
2022-09-10T01:59:25.504Z,16.52
2022-09-10T02:02:03.842Z,16.55
2022-09-10T02:04:31.871Z,16.56
2022-09-10T02:06:59.624Z,16.54
2022-09-10T02:09:26.514Z,16.54
2022-09-10T02:11:54.672Z,16.55
2022-09-10T02:14:33.700Z,16.56
2022-09-10T02:17:22.127Z,16.57
2022-09-10T02:19:52.278Z,16.55
2022-09-10T02:22:19.221Z,16.55
2022-09-10T02:24:45.584Z,16.49
2022-09-10T02:27:12.815Z,16.45
2022-09-10T02:29:39.782Z,16.39
2022-09-10T02:32:08.207Z,16.36
2022-09-10T02:34:36.140Z,16.35
2022-09-10T02:37:03.580Z,16.31
2022-09-10T02:39:30.881Z,16.30
2022-09-10T02:41:58.594Z,16.28
2022-09-10T02:44:27.914Z,16.28
2022-09-10T02:46:55.197Z,16.29
2022-09-10T02:49:21.752Z,16.27
2022-09-10T02:51:50.413Z,16.27
2022-09-10T02:54:19.806Z,16.28
2022-09-10T02:56:49.741Z,16.30
2022-09-10T02:59:17.869Z,16.30
2022-09-10T03:01:44.418Z,16.28
2022-09-10T03:04:11.093Z,16.26
2022-09-10T03:06:38.050Z,16.26
2022-09-10T03:09:04.818Z,16.25
2022-09-10T03:11:31.601Z,16.24
2022-09-10T03:13:58.576Z,16.25
2022-09-10T03:16:25.500Z,16.27
2022-09-10T03:18:52.272Z,16.30
2022-09-10T03:21:21.256Z,16.32
2022-09-10T03:23:49.743Z,16.36
2022-09-10T03:26:22.514Z,16.37
2022-09-10T03:28:49.982Z,16.40
2022-09-10T03:31:19.229Z,16.40
2022-09-10T03:33:49.073Z,16.43
2022-09-10T03:36:15.486Z,16.45
2022-09-10T03:38:43.798Z,16.44
2022-09-10T03:41:10.502Z,16.46
2022-09-10T03:43:38.062Z,16.45
2022-09-10T03:46:07.971Z,16.42
2022-09-10T03:48:39.368Z,16.40
2022-09-10T03:51:07.819Z,16.39
2022-09-10T03:53:34.614Z,16.41
2022-09-10T03:56:02.035Z,16.44
2022-09-10T03:58:28.634Z,16.47
2022-09-10T04:00:55.127Z,16.49
2022-09-10T04:03:22.762Z,16.52
2022-09-10T04:05:49.329Z,16.53
2022-09-10T04:08:15.922Z,16.55
2022-09-10T04:10:44.264Z,16.55
2022-09-10T04:13:11.329Z,16.59
2022-09-10T04:15:38.436Z,16.60
2022-09-10T04:18:06.069Z,16.61
2022-09-10T04:20:33.825Z,16.61
2022-09-10T04:23:05.932Z,16.61
2022-09-10T04:25:34.998Z,16.61
2022-09-10T04:28:01.823Z,16.60
2022-09-10T04:30:29.213Z,16.59
2022-09-10T04:32:55.767Z,16.60
2022-09-10T04:35:22.230Z,16.61
2022-09-10T04:37:48.912Z,16.63
2022-09-10T04:40:15.835Z,16.65
2022-09-10T04:42:42.230Z,16.66
2022-09-10T04:45:09.606Z,16.66
2022-09-10T04:47:36.357Z,16.69
2022-09-10T04:50:03.473Z,16.71
2022-09-10T04:52:30.054Z,16.74
2022-09-10T04:54:56.752Z,16.75
2022-09-10T04:57:25.862Z,16.74
2022-09-10T04:59:53.902Z,16.73
2022-09-10T05:02:21.572Z,16.74
2022-09-10T05:04:48.310Z,16.77
2022-09-10T05:07:15.056Z,16.77
2022-09-10T05:09:42.087Z,16.76
2022-09-10T05:12:08.496Z,16.75
2022-09-10T05:14:34.954Z,16.76
2022-09-10T05:17:03.126Z,16.77
2022-09-10T05:19:30.358Z,16.79
2022-09-10T05:22:03.419Z,16.78
2022-09-10T05:24:34.138Z,16.79
2022-09-10T05:27:03.135Z,16.79
2022-09-10T05:29:29.585Z,16.80
2022-09-10T05:31:57.242Z,16.81
2022-09-10T05:34:24.914Z,16.83
2022-09-10T05:36:52.545Z,16.83
2022-09-10T05:39:19.866Z,16.83
2022-09-10T05:41:46.762Z,16.81
2022-09-10T05:44:15.028Z,16.82
2022-09-10T05:46:41.953Z,16.83
2022-09-10T05:49:12.997Z,16.84
2022-09-10T05:51:39.718Z,16.83
2022-09-10T05:54:08.065Z,16.82
2022-09-10T05:56:35.033Z,16.79
2022-09-10T05:59:03.920Z,16.78
2022-09-10T06:01:34.922Z,16.76
2022-09-10T06:04:04.118Z,16.74
2022-09-10T06:06:30.894Z,16.76
2022-09-10T06:09:03.789Z,16.78
2022-09-10T06:11:43.574Z,16.79
2022-09-10T06:14:10.782Z,16.81
2022-09-10T06:16:37.299Z,16.83
2022-09-10T06:19:06.078Z,16.84
2022-09-10T06:21:34.195Z,16.84
2022-09-10T06:24:00.577Z,16.86
2022-09-10T06:26:31.685Z,16.87
2022-09-10T06:29:03.430Z,16.88
2022-09-10T06:31:30.553Z,16.87
2022-09-10T06:33:58.748Z,16.88
2022-09-10T06:36:29.196Z,16.88
2022-09-10T06:38:57.653Z,16.89
2022-09-10T06:41:24.373Z,16.92
2022-09-10T06:44:05.516Z,16.93
2022-09-10T06:47:25.822Z,16.93
2022-09-10T06:49:24.960Z,16.93
2022-09-10T06:51:52.066Z,16.95
2022-09-10T06:54:18.820Z,16.96
2022-09-10T06:56:46.937Z,16.97
2022-09-10T06:59:14.672Z,16.96
2022-09-10T07:01:47.510Z,16.96
2022-09-10T07:04:14.668Z,16.96
2022-09-10T07:06:41.626Z,16.97
2022-09-10T07:09:10.839Z,16.99
2022-09-10T07:11:52.142Z,17.02
2022-09-10T07:14:19.214Z,17.05
2022-09-10T07:16:47.416Z,17.09
2022-09-10T07:19:15.117Z,17.10
2022-09-10T07:21:46.842Z,17.11
2022-09-10T07:24:14.988Z,17.10
2022-09-10T07:26:57.562Z,17.09
2022-09-10T07:29:24.106Z,17.11
2022-09-10T07:31:51.666Z,17.05
2022-09-10T07:34:22.752Z,17.03
2022-09-10T07:36:49.389Z,17.04
2022-09-10T07:39:15.824Z,17.06
2022-09-10T07:41:42.973Z,17.08
2022-09-10T07:44:12.060Z,17.13
2022-09-10T07:46:42.210Z,17.18
2022-09-10T07:49:11.856Z,17.23
2022-09-10T07:51:40.265Z,17.24
2022-09-10T07:54:07.260Z,17.23
2022-09-10T07:56:38.152Z,17.22
2022-09-10T07:59:07.132Z,17.21
2022-09-10T08:01:43.201Z,17.26
2022-09-10T08:04:10.095Z,17.33
2022-09-10T08:06:38.912Z,17.39
2022-09-10T08:09:07.134Z,17.46
2022-09-10T08:11:35.929Z,17.49
2022-09-10T08:14:02.620Z,17.49
2022-09-10T08:16:29.627Z,17.52
2022-09-10T08:19:02.681Z,17.58
2022-09-10T08:21:32.187Z,17.61
2022-09-10T08:24:00.096Z,17.64
2022-09-10T08:26:29.294Z,17.68
2022-09-10T08:28:59.194Z,17.62
2022-09-10T08:31:27.124Z,17.53
2022-09-10T08:33:59.049Z,17.41
2022-09-10T08:36:26.136Z,17.39
2022-09-10T08:38:58.275Z,17.40
2022-09-10T08:41:55.378Z,17.41
2022-09-10T08:44:54.261Z,17.37
2022-09-10T08:47:35.637Z,17.40
2022-09-10T08:50:16.088Z,17.45
2022-09-10T08:52:57.345Z,17.48
2022-09-10T08:55:32.672Z,17.50
2022-09-10T08:58:02.480Z,17.55
2022-09-10T09:00:37.944Z,17.62
2022-09-10T09:03:22.766Z,17.68
2022-09-10T09:05:55.445Z,17.68
2022-09-10T09:08:30.802Z,17.60
2022-09-10T09:11:12.257Z,17.53
2022-09-10T09:13:55.841Z,17.50
2022-09-10T09:16:49.866Z,17.52
2022-09-10T09:19:56.569Z,17.60
2022-09-10T09:22:59.295Z,17.70
2022-09-10T09:25:37.641Z,17.80
2022-09-10T09:28:17.612Z,17.87
2022-09-10T09:30:49.573Z,17.94
2022-09-10T09:33:22.526Z,17.98
2022-09-10T09:36:00.143Z,18.03
2022-09-10T09:38:41.207Z,18.03
2022-09-10T09:41:23.592Z,18.09
2022-09-10T09:44:03.475Z,18.08
2022-09-10T09:46:32.753Z,18.15
2022-09-10T09:49:02.142Z,18.21
2022-09-10T09:51:35.175Z,18.17
2022-09-10T09:56:58.985Z,18.21
2022-09-10T09:59:31.357Z,18.33
2022-09-10T10:02:10.599Z,18.50
2022-09-10T10:04:42.037Z,18.52
2022-09-10T10:07:08.885Z,18.57
2022-09-10T10:09:42.891Z,18.58
2022-09-10T10:12:20.716Z,18.61
2022-09-10T10:14:47.250Z,18.63
2022-09-10T10:17:31.612Z,18.63
2022-09-10T10:20:07.187Z,18.64
2022-09-10T10:22:33.773Z,18.65
2022-09-10T10:25:01.519Z,18.69
2022-09-10T10:27:32.576Z,18.71
2022-09-10T10:30:02.301Z,18.73
2022-09-10T10:32:58.957Z,18.69
2022-09-10T10:35:46.505Z,18.68
2022-09-10T10:38:28.683Z,18.57
2022-09-10T10:41:13.535Z,18.61
2022-09-10T10:43:42.816Z,18.69
2022-09-10T10:46:20.348Z,18.74
2022-09-10T10:49:11.237Z,18.81
2022-09-10T10:52:08.966Z,18.85
2022-09-10T10:55:02.979Z,18.88
2022-09-10T10:58:00.140Z,18.94
2022-09-10T11:00:29.045Z,19.01
2022-09-10T11:03:09.418Z,19.13
2022-09-10T11:05:42.965Z,19.12
2022-09-10T11:08:11.995Z,19.03
2022-09-10T11:10:54.537Z,19.00
2022-09-10T11:13:36.578Z,18.91
2022-09-10T11:16:09.465Z,18.93
2022-09-10T11:18:58.659Z,18.87
2022-09-10T11:22:03.727Z,18.93
2022-09-10T11:25:03.005Z,18.97
2022-09-10T11:27:41.699Z,19.11
2022-09-10T11:30:16.194Z,19.16
2022-09-10T11:32:50.770Z,19.25
2022-09-10T11:35:23.164Z,19.27
2022-09-10T11:37:53.399Z,19.23
2022-09-10T11:40:28.393Z,19.17
2022-09-10T11:42:59.915Z,19.10
2022-09-10T11:45:41.081Z,19.18
2022-09-10T11:48:40.260Z,19.16
2022-09-10T11:51:15.791Z,19.24
2022-09-10T11:53:42.197Z,19.27
2022-09-10T11:56:35.229Z,19.28
2022-09-10T11:59:26.950Z,19.31
2022-09-10T12:02:28.998Z,19.34
2022-09-10T12:05:33.168Z,19.34
2022-09-10T12:08:18.413Z,19.41
2022-09-10T12:11:13.882Z,19.45
2022-09-10T12:13:41.613Z,19.51
2022-09-10T12:16:30.885Z,19.60
2022-09-10T12:18:59.690Z,19.63
2022-09-10T12:21:32.620Z,19.60
2022-09-10T12:24:03.392Z,19.62
2022-09-10T12:26:39.437Z,19.62
2022-09-10T12:29:06.607Z,19.59
2022-09-10T12:32:11.531Z,19.54
2022-09-10T12:34:39.789Z,19.45
2022-09-10T12:37:06.275Z,19.46
2022-09-10T12:39:34.277Z,19.52
2022-09-10T12:42:30.873Z,19.63
2022-09-10T12:44:57.670Z,19.76
2022-09-10T12:47:39.908Z,19.85
2022-09-10T12:50:18.947Z,19.90
2022-09-10T12:52:51.523Z,19.87
2022-09-10T12:55:40.866Z,19.82
2022-09-10T12:58:28.648Z,19.74
2022-09-10T13:00:54.921Z,19.82
2022-09-10T13:03:24.142Z,19.90
2022-09-10T13:05:54.085Z,19.97
2022-09-10T13:08:42.741Z,20.06
2022-09-10T13:11:22.189Z,20.10
2022-09-10T13:13:48.484Z,20.12
2022-09-10T13:16:27.143Z,20.18
2022-09-10T13:19:14.419Z,20.31
2022-09-10T13:21:40.693Z,20.41
2022-09-10T13:24:35.964Z,20.30
2022-09-10T13:27:17.249Z,20.13
2022-09-10T13:29:47.541Z,20.14
2022-09-10T13:32:29.870Z,20.23
2022-09-10T13:35:06.478Z,20.35
2022-09-10T13:38:10.189Z,20.43
2022-09-10T13:40:43.238Z,20.39
2022-09-10T13:43:40.998Z,20.32
2022-09-10T13:46:20.637Z,20.24
2022-09-10T13:48:55.412Z,20.23
2022-09-10T13:51:39.825Z,20.20
2022-09-10T13:54:31.203Z,20.24
2022-09-10T13:57:04.822Z,20.35
2022-09-10T13:59:33.961Z,20.45
2022-09-10T14:02:00.348Z,20.49
2022-09-10T14:04:35.461Z,20.52
2022-09-10T14:07:14.287Z,20.47
2022-09-10T14:09:43.316Z,20.40
2022-09-10T14:12:10.780Z,20.30
2022-09-10T14:14:42.430Z,20.22
2022-09-10T14:17:25.502Z,20.20
2022-09-10T14:20:05.855Z,20.22
2022-09-10T14:22:32.447Z,20.29
2022-09-10T14:25:01.679Z,20.38
2022-09-10T14:27:36.390Z,20.49
2022-09-10T14:30:20.892Z,20.57
2022-09-10T14:32:47.281Z,20.64
2022-09-10T14:35:37.187Z,20.64
2022-09-10T14:38:21.167Z,20.61
2022-09-10T14:40:47.866Z,20.55
2022-09-10T14:43:15.745Z,20.49
2022-09-10T14:45:47.672Z,20.46
2022-09-10T14:48:37.241Z,20.46
2022-09-10T14:51:23.847Z,20.44
2022-09-10T14:53:55.453Z,20.47
2022-09-10T14:56:37.886Z,20.49
2022-09-10T14:59:13.217Z,20.45
2022-09-10T15:01:45.371Z,20.38
2022-09-10T15:04:18.514Z,20.31
2022-09-10T15:06:45.067Z,20.25
2022-09-10T15:09:13.548Z,20.23
2022-09-10T15:11:51.568Z,20.20
2022-09-10T15:14:18.509Z,20.14
2022-09-10T15:16:44.906Z,20.12
2022-09-10T15:19:11.777Z,20.12
2022-09-10T15:21:39.572Z,20.18
2022-09-10T15:24:06.385Z,20.25
2022-09-10T15:26:32.982Z,20.26
2022-09-10T15:28:59.340Z,20.29
2022-09-10T15:31:28.532Z,20.28
2022-09-10T15:33:58.477Z,20.24
2022-09-10T15:36:25.827Z,20.22
2022-09-10T15:38:52.673Z,20.23
2022-09-10T15:41:19.776Z,20.18
2022-09-10T15:43:46.750Z,20.15
2022-09-10T15:46:15.807Z,20.11
2022-09-10T15:48:43.259Z,20.10
2022-09-10T15:51:17.009Z,20.07
2022-09-10T15:53:43.817Z,19.96
2022-09-10T15:56:11.664Z,20.02
2022-09-10T15:58:39.100Z,20.08
2022-09-10T16:01:08.637Z,20.17
2022-09-10T16:03:35.022Z,20.24
2022-09-10T16:06:03.630Z,20.22
2022-09-10T16:08:30.642Z,20.18
2022-09-10T16:10:57.684Z,20.23
2022-09-10T16:13:25.922Z,20.23
2022-09-10T16:16:00.343Z,20.28
2022-09-10T16:18:27.802Z,20.28
2022-09-10T16:20:54.741Z,20.25
2022-09-10T16:23:21.345Z,20.26
2022-09-10T16:25:52.594Z,20.28
2022-09-10T16:28:19.037Z,20.27
2022-09-10T16:30:46.146Z,20.25
2022-09-10T16:33:13.872Z,20.22
2022-09-10T16:35:40.210Z,20.20
2022-09-10T16:38:06.845Z,20.15
2022-09-10T16:40:33.191Z,20.06
2022-09-10T16:42:59.581Z,20.02
2022-09-10T16:45:25.973Z,20.06
2022-09-10T16:47:55.127Z,20.05
2022-09-10T16:50:22.750Z,20.06
2022-09-10T16:52:49.380Z,19.99
2022-09-10T16:55:16.194Z,19.98
2022-09-10T16:57:42.557Z,20.02
2022-09-10T17:00:13.878Z,20.02
2022-09-10T17:02:41.100Z,19.98
2022-09-10T17:05:07.793Z,19.92
2022-09-10T17:07:34.165Z,19.86
2022-09-10T17:10:01.186Z,19.83
2022-09-10T17:12:28.052Z,19.85
2022-09-10T17:14:54.426Z,19.80
2022-09-10T17:17:20.794Z,19.79
2022-09-10T17:19:47.138Z,19.75
2022-09-10T17:22:13.536Z,19.68
2022-09-10T17:24:39.919Z,19.63
2022-09-10T17:27:06.563Z,19.63
2022-09-10T17:29:32.923Z,19.63
2022-09-10T17:31:59.269Z,19.66
2022-09-10T17:34:26.444Z,19.66
2022-09-10T17:36:52.854Z,19.63
2022-09-10T17:39:19.861Z,19.61
2022-09-10T17:41:46.605Z,19.56
2022-09-10T17:44:13.443Z,19.58
2022-09-10T17:46:40.149Z,19.59
2022-09-10T17:49:06.614Z,19.55
2022-09-10T17:51:34.405Z,19.54
2022-09-10T17:54:03.112Z,19.47
2022-09-10T17:56:29.949Z,19.46
2022-09-10T17:59:01.913Z,19.47
2022-09-10T18:01:32.081Z,19.48
2022-09-10T18:03:58.493Z,19.48
2022-09-10T18:06:27.061Z,19.46
2022-09-10T18:08:53.494Z,19.44
2022-09-10T18:11:23.980Z,19.43
2022-09-10T18:13:52.129Z,19.43
2022-09-10T18:16:24.285Z,19.45
2022-09-10T18:18:58.190Z,19.42
2022-09-10T18:21:32.906Z,19.40
2022-09-10T18:24:03.836Z,19.36
2022-09-10T18:26:33.589Z,19.34
2022-09-10T18:29:02.954Z,19.30
2022-09-10T18:31:33.093Z,19.27
2022-09-10T18:34:01.404Z,19.29
2022-09-10T18:36:31.487Z,19.27
2022-09-10T18:38:58.777Z,19.24
2022-09-10T18:41:28.173Z,19.22
2022-09-10T18:43:58.059Z,19.21
2022-09-10T18:46:26.001Z,19.20
2022-09-10T18:48:53.294Z,19.15
2022-09-10T18:51:22.554Z,19.16
2022-09-10T18:53:56.385Z,19.16
2022-09-10T18:56:25.306Z,19.17
2022-09-10T18:58:55.615Z,19.16
2022-09-10T19:01:23.691Z,19.13
2022-09-10T19:03:50.454Z,19.10
2022-09-10T19:06:19.997Z,19.07
2022-09-10T19:08:54.805Z,19.02
2022-09-10T19:11:24.276Z,19.01
2022-09-10T19:13:53.213Z,19.02
2022-09-10T19:16:21.375Z,19.03
2022-09-10T19:18:52.199Z,19.02
2022-09-10T19:21:20.202Z,19.00
2022-09-10T19:23:48.326Z,19.01
2022-09-10T19:26:15.214Z,19.02
2022-09-10T19:28:42.021Z,19.00
2022-09-10T19:31:10.550Z,18.96
2022-09-10T19:33:37.332Z,18.96
2022-09-10T19:36:06.041Z,18.93
2022-09-10T19:38:37.863Z,18.89
2022-09-10T19:41:08.391Z,18.91
2022-09-10T19:43:36.238Z,18.90
2022-09-10T19:46:09.965Z,18.92
2022-09-10T19:48:36.948Z,18.91
2022-09-10T19:51:05.090Z,18.91
2022-09-10T19:53:33.373Z,18.90
2022-09-10T19:56:11.413Z,18.90
2022-09-10T19:58:38.179Z,18.92
2022-09-10T20:01:13.507Z,18.91
2022-09-10T20:03:41.686Z,18.90
2022-09-10T20:06:11.262Z,18.90
2022-09-10T20:08:39.019Z,18.89
2022-09-10T20:11:07.680Z,18.87
2022-09-10T20:13:36.594Z,18.84
2022-09-10T20:16:05.257Z,18.83
2022-09-10T20:18:34.013Z,18.81
2022-09-10T20:21:19.790Z,18.79
2022-09-10T20:23:48.970Z,18.77
2022-09-10T20:26:20.829Z,18.75
2022-09-10T20:28:55.549Z,18.74
2022-09-10T20:31:23.893Z,18.71
2022-09-10T20:33:57.251Z,18.70
2022-09-10T20:36:25.086Z,18.68
2022-09-10T20:38:53.094Z,18.68
2022-09-10T20:41:20.095Z,18.68
2022-09-10T20:43:53.373Z,18.69
2022-09-10T20:46:22.281Z,18.69
2022-09-10T20:48:50.173Z,18.70
2022-09-10T20:51:17.853Z,18.67
2022-09-10T20:53:44.672Z,18.65
2022-09-10T20:56:14.065Z,18.64
2022-09-10T20:58:41.402Z,18.64
2022-09-10T21:01:19.173Z,18.66
2022-09-10T21:03:49.493Z,18.64
2022-09-10T21:06:20.346Z,18.62
2022-09-10T21:08:47.914Z,18.59
2022-09-10T21:11:17.219Z,18.58
2022-09-10T21:13:46.406Z,18.57
2022-09-10T21:16:16.052Z,18.56
2022-09-10T21:18:50.838Z,18.59
2022-09-10T21:21:22.552Z,18.55
2022-09-10T21:23:50.772Z,18.55
2022-09-10T21:26:20.577Z,18.54
2022-09-10T21:28:47.893Z,18.54
2022-09-10T21:31:14.658Z,18.53
2022-09-10T21:33:42.417Z,18.50
2022-09-10T21:36:16.705Z,18.48
2022-09-10T21:38:51.137Z,18.48
2022-09-10T21:41:24.010Z,18.46
2022-09-10T21:43:50.392Z,18.45
2022-09-10T21:46:16.762Z,18.44
2022-09-10T21:48:43.305Z,18.41
2022-09-10T21:51:14.766Z,18.42
2022-09-10T21:53:42.571Z,18.39
2022-09-10T21:56:12.616Z,18.38
2022-09-10T21:58:39.102Z,18.37
2022-09-10T22:01:13.837Z,18.35
2022-09-10T22:03:40.560Z,18.33
2022-09-10T22:06:14.227Z,18.32
2022-09-10T22:08:43.034Z,18.33
2022-09-10T22:11:15.992Z,18.31
2022-09-10T22:13:43.885Z,18.30
2022-09-10T22:16:14.727Z,18.28
2022-09-10T22:18:41.624Z,18.27
2022-09-10T22:21:09.078Z,18.27
2022-09-10T22:23:38.042Z,18.24
2022-09-10T22:26:10.728Z,18.23
2022-09-10T22:28:38.254Z,18.22
2022-09-10T22:31:16.174Z,18.18
2022-09-10T22:33:45.494Z,18.15
2022-09-10T22:36:20.204Z,18.14
2022-09-10T22:38:51.921Z,18.12
2022-09-10T22:41:18.862Z,18.09
2022-09-10T22:43:45.650Z,18.09
2022-09-10T22:46:12.844Z,18.08
2022-09-10T22:48:42.393Z,18.08
2022-09-10T22:51:14.940Z,18.06
2022-09-10T22:53:42.676Z,18.05
2022-09-10T22:56:10.745Z,18.05
2022-09-10T22:58:37.365Z,18.06
2022-09-10T23:01:08.637Z,18.08
2022-09-10T23:03:35.608Z,18.08
2022-09-10T23:06:11.766Z,18.10
2022-09-10T23:08:39.631Z,18.12
2022-09-10T23:11:34.331Z,18.13
2022-09-10T23:14:03.318Z,18.12
2022-09-10T23:16:36.263Z,18.16
2022-09-10T23:19:05.344Z,18.16
2022-09-10T23:21:34.008Z,18.17
2022-09-10T23:24:03.514Z,18.16
2022-09-10T23:26:30.336Z,18.18
2022-09-10T23:28:56.894Z,18.20
2022-09-10T23:31:26.678Z,18.20
2022-09-10T23:33:59.017Z,18.20
2022-09-10T23:36:27.149Z,18.20
2022-09-10T23:38:53.771Z,18.19
2022-09-10T23:41:20.321Z,18.20
2022-09-10T23:43:47.213Z,18.19
2022-09-10T23:46:14.045Z,18.19
2022-09-10T23:48:42.518Z,18.18
2022-09-10T23:51:12.049Z,18.19
2022-09-10T23:53:39.361Z,18.18
2022-09-10T23:56:06.519Z,18.16
2022-09-10T23:58:32.894Z,18.16
